Latest Weather Observations for Mount William

IDV60801

Issued at 10:02 pm EST Saturday 30 May 2015 (issued every 30 minutes, with the page automatically refreshed every 10 minutes)

About weather observations | Map of weather stations | Latest weather observations for VIC | Other Formats
Station Details ID: 079103 Name: MOUNT WILLIAM Lat: -37.30 Lon: 142.60 Height: 1150.0 m
Data from the previous 72 hours. | See also: Recent months at Mount William
Date/Time
EST
Temp
°C
App
Temp
°C
Dew
Point
Rel
Hum
%
Delta-T
°C
Wind Press
QNH
hPa
Press
MSL
hPa
Rain
since 9 am
mm
Dir
 
Spd
km/h
Gust
km/h
Spd
kts
Gust
kts
30/10:00pm 3.9 -2.8 3.8 99 0.0 W 28 52 15 28 - - 10.2
30/09:40pm 4.3 -3.1 4.2 99 0.0 W 32 52 17 28 - - 10.2
30/09:30pm 4.3 -3.2 4.2 99 0.0 W 33 50 18 27 - - 10.0
30/09:11pm 4.7 -1.8 4.6 99 0.0 W 28 48 15 26 - - 9.8
30/09:00pm 4.7 -2.2 4.6 99 0.0 W 30 46 16 25 - - 9.8
30/08:30pm 4.9 -1.6 4.8 99 0.0 W 28 44 15 24 - - 9.2
30/08:18pm 5.0 -1.5 4.9 99 0.0 W 28 48 15 26 - - 9.2
30/08:00pm 5.2 -0.1 5.1 99 0.0 W 22 39 12 21 - - 8.2
30/07:35pm 5.1 -1.7 5.0 99 0.0 W 30 48 16 26 - - 7.4
30/07:30pm 5.0 -2.2 4.9 99 0.0 W 32 48 17 26 - - 7.4
30/07:28pm 5.0 -1.8 4.9 99 0.0 W 30 48 16 26 - - 7.4
30/07:00pm 5.3 -0.3 5.2 99 0.0 W 24 46 13 25 - - 7.2
30/06:30pm 5.2 -0.8 5.1 99 0.0 W 26 43 14 23 - - 7.0
30/06:00pm 5.2 -2.0 5.1 99 0.0 W 32 52 17 28 - - 7.0
30/05:33pm 5.0 -2.8 4.9 99 0.0 WSW 35 56 19 30 - - 6.8
30/05:30pm 5.0 -2.8 4.9 99 0.0 WSW 35 52 19 28 - - 6.8
30/05:02pm 4.8 -3.0 4.7 99 0.0 WSW 35 59 19 32 - - 6.8
30/05:00pm 4.8 -3.0 4.7 99 0.0 WSW 35 50 19 27 - - 6.8
30/04:43pm 4.7 -2.8 4.6 99 0.0 WSW 33 54 18 29 - - 6.8
30/04:30pm 4.9 -2.3 4.8 99 0.0 WSW 32 48 17 26 - - 6.8
30/04:00pm 4.6 -3.6 4.5 99 0.0 W 37 48 20 26 - - 6.4
30/03:30pm 4.1 -2.2 4.0 99 0.0 WSW 26 44 14 24 - - 6.2
30/03:00pm 5.4 -1.0 5.3 99 0.0 W 28 43 15 23 - - 4.8
30/02:30pm 5.1 -1.3 5.0 99 0.0 W 28 48 15 26 - - 4.4
30/02:29pm 5.1 -1.3 5.0 99 0.0 W 28 48 15 26 - - 4.4
30/02:00pm 5.2 -0.5 5.1 99 0.0 W 24 39 13 21 - - 4.0
30/01:30pm 5.1 -1.0 5.0 99 0.0 W 26 48 14 26 - - 3.0
30/01:00pm 4.8 -2.7 4.7 99 0.0 W 33 61 18 33 - - 2.4
30/12:30pm 4.5 -3.0 4.4 99 0.0 W 33 57 18 31 - - 2.0
30/12:02pm 4.5 -2.8 4.4 99 0.0 W 32 56 17 30 - - 1.8
30/12:00pm 4.5 -2.4 4.4 99 0.0 W 30 44 16 24 - - 1.6
30/11:32am 4.3 -3.1 4.2 99 0.0 W 32 50 17 27 - - 1.6
30/11:30am 4.3 -2.7 4.2 99 0.0 W 30 46 16 25 - - 1.6
30/11:06am 4.0 -2.7 3.9 99 0.0 W 28 54 15 29 - - 1.6
30/11:00am 4.1 -1.4 4.0 99 0.0 W 22 43 12 23 - - 1.6
30/10:39am 4.0 -3.0 3.9 99 0.0 W 30 48 16 26 - - 1.4
30/10:30am 4.0 -3.4 3.9 99 0.0 W 32 44 17 24 - - 1.4
30/10:00am 3.8 -3.3 3.7 99 0.0 W 30 52 16 28 - - 1.4
30/09:30am 3.8 -3.8 3.7 99 0.0 W 33 52 18 28 - - 0.2
30/09:00am 3.4 -4.3 3.3 99 0.0 W 33 59 18 32 - - 8.4
30/08:48am 3.4 -4.3 3.3 99 0.0 W 33 54 18 29 - - 8.4
30/08:30am 3.3 -4.2 3.2 99 0.0 W 32 48 17 26 - - 8.4
30/08:00am 3.1 -3.7 3.0 99 0.0 W 28 46 15 25 - - 8.2
30/07:52am 3.1 -3.7 3.0 99 0.0 W 28 46 15 25 - - 8.2
30/07:30am 3.1 -3.3 3.0 99 0.0 W 26 41 14 22 - - 8.0
30/07:00am 3.2 -4.0 3.1 99 0.0 W 30 44 16 24 - - 7.8
30/06:30am 3.1 -3.7 3.0 99 0.0 W 28 43 15 23 - - 7.8
30/06:01am 3.2 -4.0 3.1 99 0.0 W 30 48 16 26 - - 7.6
30/06:00am 3.3 -3.9 3.2 99 0.0 W 30 41 16 22 - - 7.6
30/05:30am 3.1 -4.1 3.0 99 0.0 W 30 43 16 23 - - 7.4
30/05:00am 3.3 -3.9 3.2 99 0.0 W 30 50 16 27 - - 7.4
30/04:46am 3.1 -4.1 3.0 99 0.0 W 30 52 16 28 - - 7.0
30/04:30am 3.1 -4.1 3.0 99 0.0 WSW 30 43 16 23 - - 6.8
30/04:00am 2.9 -5.3 2.8 99 0.0 W 35 46 19 25 - - 6.6
30/03:30am 2.9 -5.3 2.8 99 0.0 W 35 48 19 26 - - 6.6
30/03:00am 3.2 -4.6 3.1 99 0.0 W 33 50 18 27 - - 6.6
30/02:30am 3.2 -4.4 3.1 99 0.0 W 32 46 17 25 - - 6.4
30/02:00am 3.3 -3.9 3.2 99 0.0 W 30 41 16 22 - - 6.0
30/01:30am 3.4 -3.4 3.3 99 0.0 W 28 43 15 23 - - 6.0
30/01:00am 3.5 -3.2 3.4 99 0.0 WSW 28 46 15 25 - - 5.8
30/12:42am 3.5 -3.2 3.4 99 0.0 W 28 48 15 26 - - 5.8
30/12:30am 3.5 -2.9 3.4 99 0.0 W 26 37 14 20 - - 5.8
30/12:00am 3.5 -3.6 3.4 99 0.0 W 30 39 16 21 - - 5.2
 
Date/Time
EST
Temp
°C
App
Temp
°C
Dew
Point
Rel
Hum
%
Delta-T
°C
Wind Press
QNH
hPa
Press
MSL
hPa
Rain
since 9 am
mm
Dir
 
Spd
km/h
Gust
km/h
Spd
kts
Gust
kts
29/11:30pm 3.6 -3.5 3.5 99 0.0 WSW 30 44 16 24 - - 5.2
29/11:10pm 3.5 -3.2 3.4 99 0.0 W 28 52 15 28 - - 4.8
29/11:00pm 3.6 -3.5 3.5 99 0.0 WSW 30 43 16 23 - - 4.8
29/10:30pm 3.6 -3.1 3.5 99 0.0 WSW 28 37 15 20 - - 4.8
29/10:00pm 3.8 -2.5 3.7 99 0.0 W 26 43 14 23 - - 4.8
29/09:30pm 3.8 -2.1 3.7 99 0.0 W 24 32 13 17 - - 4.4
29/09:00pm 3.8 -1.8 3.7 99 0.0 WSW 22 37 12 20 - - 4.2
29/08:30pm 4.0 -0.9 3.9 99 0.0 W 19 24 10 13 - - 3.8
29/08:00pm 4.0 -1.5 3.9 99 0.0 W 22 32 12 17 - - 3.6
29/07:30pm 4.0 -1.1 3.9 99 0.0 W 20 30 11 16 - - 3.0
29/07:00pm 4.0 -0.9 3.9 99 0.0 W 19 26 10 14 - - 2.6
29/06:30pm 4.0 -1.1 3.9 99 0.0 W 20 30 11 16 - - 1.8
29/06:00pm 3.9 -1.6 3.8 99 0.0 W 22 30 12 16 - - 0.8
29/05:30pm 3.8 -1.8 3.7 99 0.0 W 22 41 12 22 - - 0.6
29/05:00pm 3.8 -1.8 3.7 99 0.0 W 22 33 12 18 - - 0.6
29/04:30pm 3.8 -1.4 3.7 99 0.0 W 20 28 11 15 - - 0.4
29/04:00pm 3.8 -2.1 3.7 99 0.0 W 24 32 13 17 - - 0.4
29/03:30pm 3.9 -1.1 3.8 99 0.0 W 19 28 10 15 - - 0.4
29/03:00pm 3.7 -1.3 3.6 99 0.0 W 19 30 10 16 - - 0.4
29/02:30pm 4.0 -1.5 3.9 99 0.0 WSW 22 35 12 19 - - 0.4
29/02:00pm 3.6 -2.0 3.5 99 0.0 WSW 22 32 12 17 - - 0.4
29/01:30pm 3.6 -1.0 3.5 99 0.0 WSW 17 30 9 16 - - 0.4
29/01:00pm 3.3 -1.8 3.2 99 0.0 WSW 19 33 10 18 - - 0.4
29/12:30pm 3.2 -1.9 3.1 99 0.0 WSW 19 33 10 18 - - 0.4
29/12:00pm 3.6 -1.4 3.5 99 0.0 WSW 19 30 10 16 - - 0.4
29/11:30am 3.7 -1.3 3.6 99 0.0 WSW 19 33 10 18 - - 0.4
29/11:00am 3.5 -2.5 3.4 99 0.0 WSW 24 35 13 19 - - 0.4
29/10:30am 3.4 -1.7 3.3 99 0.0 WSW 19 30 10 16 - - 0.0
29/10:00am 3.0 -1.7 2.9 99 0.0 WSW 17 32 9 17 - - 0.0
29/09:30am 2.8 -2.4 2.7 99 0.0 WSW 19 33 10 18 - - 0.0
29/09:00am 2.7 -2.1 2.6 99 0.0 WSW 17 28 9 15 - - 4.2
29/08:30am 2.4 -3.0 2.3 99 0.0 WSW 20 33 11 18 - - 4.2
29/08:00am 2.3 -4.3 2.2 99 0.0 WSW 26 41 14 22 - - 4.2
29/07:30am 2.2 -4.0 2.1 99 0.0 WSW 24 43 13 23 - - 4.2
29/07:00am 2.2 -4.8 2.1 99 0.0 WSW 28 41 15 22 - - 4.2
29/06:44am 2.2 -4.8 2.1 99 0.0 WSW 28 46 15 25 - - 4.2
29/06:30am 2.1 -3.4 2.0 99 0.0 WSW 20 37 11 20 - - 4.2
29/06:00am 2.2 -3.3 2.1 99 0.0 WSW 20 37 11 20 - - 4.2
29/05:30am 2.2 -1.5 2.1 99 0.0 WSW 11 30 6 16 - - 4.2
29/05:00am 2.2 -3.1 2.1 99 0.0 WSW 19 41 10 22 - - 4.2
29/04:30am 2.3 -3.5 2.2 99 0.0 WSW 22 43 12 23 - - 4.2
29/04:00am 2.4 -2.5 2.3 99 0.0 W 17 35 9 19 - - 4.2
29/03:30am 2.4 -2.8 2.3 99 0.0 WSW 19 39 10 21 - - 4.2
29/03:00am 2.6 -3.5 2.5 99 0.0 WSW 24 59 13 32 - - 4.2
29/02:30am 2.6 -2.3 2.3 98 0.1 WSW 17 32 9 17 - - 4.2
29/02:00am 2.8 -1.3 2.5 98 0.1 W 13 26 7 14 - - 4.2
29/01:30am 2.9 -1.1 2.8 99 0.0 WNW 13 24 7 13 - - 4.2
29/01:00am 2.9 -2.4 1.9 93 0.4 WNW 19 39 10 21 - - 4.2
29/12:30am 3.2 -1.9 2.9 98 0.1 WNW 19 43 10 23 - - 4.2
29/12:15am 3.3 -2.7 3.2 99 0.0 WNW 24 59 13 32 - - 4.2
29/12:00am 3.1 -0.9 3.0 99 0.0 NW 13 30 7 16 - - 4.2
 
Date/Time
EST
Temp
°C
App
Temp
°C
Dew
Point
Rel
Hum
%
Delta-T
°C
Wind Press
QNH
hPa
Press
MSL
hPa
Rain
since 9 am
mm
Dir
 
Spd
km/h
Gust
km/h
Spd
kts
Gust
kts
28/11:30pm 3.0 -3.5 2.9 99 0.0 W 26 44 14 24 - - 4.2
28/11:00pm 3.2 -5.3 3.1 99 0.0 WSW 37 63 20 34 - - 4.2
28/10:30pm 3.4 -6.2 3.3 99 0.0 WSW 43 61 23 33 - - 4.2
28/10:02pm 4.0 -3.6 3.9 99 0.0 WSW 33 54 18 29 - - 4.2
28/10:00pm 4.0 -3.4 3.9 99 0.0 WSW 32 50 17 27 - - 4.2
28/09:51pm 4.4 -2.2 4.3 99 0.0 WSW 28 50 15 27 - - 4.0
28/09:30pm 4.7 -0.3 4.6 99 0.0 WSW 20 41 11 22 - - 3.6
28/09:01pm 5.0 -1.5 4.9 99 0.0 WSW 28 46 15 25 - - 3.6
28/09:00pm 5.0 -1.1 4.9 99 0.0 WSW 26 46 14 25 - - 3.6
28/08:30pm 5.2 0.3 5.1 99 0.0 WSW 20 35 11 19 - - 3.4
28/08:00pm 5.4 0.2 5.3 99 0.0 WSW 22 35 12 19 - - 3.4
28/07:30pm 5.6 -0.4 5.5 99 0.0 WSW 26 43 14 23 - - 2.8
28/07:00pm 6.0 -0.6 5.9 99 0.0 WSW 30 54 16 29 - - 2.8
28/06:30pm 6.2 -1.0 6.1 99 0.0 W 33 57 18 31 - - 2.6
28/06:00pm 6.0 -1.6 5.9 99 0.0 W 35 63 19 34 - - 2.4
28/05:51pm 6.2 -0.8 6.1 99 0.0 W 32 52 17 28 - - 2.0
28/05:30pm 6.3 -0.7 6.2 99 0.0 W 32 46 17 25 - - 0.8
28/05:00pm 7.7 -0.8 5.3 85 1.1 W 39 57 21 31 - - 0.0
28/04:30pm 8.0 -0.1 5.3 83 1.3 W 37 61 20 33 - - 0.0
28/04:00pm 8.6 0.2 5.4 80 1.5 W 39 57 21 31 - - 0.0
28/03:59pm 8.6 0.5 5.4 80 1.5 W 37 57 20 31 - - 0.0
28/03:30pm 8.5 1.4 5.3 80 1.5 W 32 46 17 25 - - 0.0
28/03:00pm 8.6 -0.3 5.0 78 1.7 W 41 61 22 33 - - 0.0
28/02:35pm 9.3 0.7 4.9 74 2.1 WNW 39 61 21 33 - - 0.0
28/02:30pm 9.5 0.6 5.3 75 2.0 WNW 41 59 22 32 - - 0.0
28/02:00pm 9.5 0.1 5.5 76 1.9 W 44 65 24 35 - - 0.0
28/01:30pm 9.0 1.4 5.6 79 1.7 WNW 35 56 19 30 - - 0.0
28/01:00pm 9.7 2.4 7.1 84 1.3 WNW 35 57 19 31 - - 0.0
28/12:33pm 7.9 0.4 6.5 91 0.7 WNW 35 61 19 33 - - 0.0
28/12:30pm 8.2 0.9 7.0 92 0.6 WNW 35 50 19 27 - - 0.0
28/12:00pm 7.4 -1.7 7.0 97 0.2 WNW 44 63 24 34 - - 0.0
28/11:30am 7.3 -1.1 7.2 99 0.0 WNW 41 63 22 34 - - 0.0
28/11:00am 7.0 -1.5 6.9 99 0.0 WNW 41 65 22 35 - - 0.0
28/10:30am 6.8 -1.1 6.2 96 0.3 WNW 37 57 20 31 - - 0.0
28/10:08am 7.1 -0.5 6.0 93 0.5 WNW 35 56 19 30 - - 0.0
28/10:00am 7.3 -0.7 5.6 89 0.8 WNW 37 52 20 28 - - 0.0
28/09:45am 7.3 -0.8 5.1 86 1.0 WNW 37 65 20 35 - - 0.0
28/09:30am 7.5 -0.2 5.5 87 1.0 WNW 35 52 19 28 - - 0.0
28/09:00am 7.3 -0.2 6.1 92 0.6 WNW 35 52 19 28 - - -
28/08:34am 7.7 0.7 6.0 89 0.8 NW 32 56 17 30 - - -
28/08:30am 7.8 0.8 5.9 88 0.9 NW 32 48 17 26 - - -
28/08:00am 7.3 -0.1 5.1 86 1.0 WNW 33 50 18 27 - - -
28/07:30am 7.1 -0.2 5.3 88 0.9 WNW 33 46 18 25 - - -
28/07:10am 6.9 -0.2 5.4 90 0.7 WNW 32 52 17 28 - - -
28/07:00am 7.1 -0.6 5.4 89 0.8 WNW 35 50 19 27 - - -
28/06:30am 7.1 -1.0 5.1 87 0.9 WNW 37 56 20 30 - - -
28/06:09am 7.4 -0.8 4.7 83 1.3 WNW 37 59 20 32 - - -
28/06:00am 7.4 -0.5 4.4 81 1.4 WNW 35 48 19 26 - - -
28/05:30am 7.6 0.0 3.8 77 1.8 WNW 33 56 18 30 - - -
28/05:00am 7.6 0.0 3.8 77 1.8 NW 33 54 18 29 - - -
28/04:31am 8.1 0.1 3.8 74 2.0 NW 35 57 19 31 - - -
28/04:30am 8.0 0.0 3.7 74 2.0 NW 35 50 19 27 - - -
28/04:00am 7.7 0.3 4.1 78 1.7 NW 32 52 17 28 - - -
28/03:59am 7.7 0.3 3.9 77 1.8 NW 32 52 17 28 - - -
28/03:30am 7.3 0.4 4.4 82 1.4 WNW 30 43 16 23 - - -
28/03:00am 7.7 0.1 3.7 76 1.8 NW 33 48 18 26 - - 0.0
28/02:30am 7.7 0.3 3.9 77 1.8 NW 32 50 17 27 - - -
28/02:28am 7.6 0.6 4.0 78 1.7 NW 30 50 16 27 - - -
28/02:00am 7.4 0.4 4.0 79 1.6 NW 30 39 16 21 - - -
28/01:30am 7.3 0.3 4.1 80 1.5 NW 30 44 16 24 - - -
28/01:00am 7.4 0.9 4.9 84 1.2 NW 28 41 15 22 - - -
28/12:30am 7.6 0.9 5.4 86 1.1 NW 30 43 16 23 - - -
28/12:00am 7.5 0.8 5.6 88 0.9 WNW 30 46 16 25 - - -
 
Date/Time
EST
Temp
°C
App
Temp
°C
Dew
Point
Rel
Hum
%
Delta-T
°C
Wind Press
QNH
hPa
Press
MSL
hPa
Rain
since 9 am
mm
Dir
 
Spd
km/h
Gust
km/h
Spd
kts
Gust
kts
27/11:49pm 7.7 1.0 5.7 87 1.0 WNW 30 48 16 26 - - -
27/11:30pm 7.6 1.1 6.7 94 0.4 WNW 30 43 16 23 - - -
27/11:00pm 7.6 1.0 6.2 91 0.7 NW 30 41 16 22 - - -
27/10:30pm 7.7 1.5 6.3 91 0.7 WNW 28 39 15 21 - - -

Other Formats:

Comma delimited format used in spreadsheet applications
http://www.bom.gov.au/fwo/IDV60801/IDV60801.94833.axf

JavaScript Object Notation format (JSON) in row-major order
http://www.bom.gov.au/fwo/IDV60801/IDV60801.94833.json